sensor_id;sensor_type;location;lat;lon;timestamp;pressure;altitude;pressure_sealevel;temperature;humidity
52441;BME280;39611;46.062;8.950;2023-03-22T00:01:44;96404.75;;;10.55;75.67
52441;BME280;39611;46.062;8.950;2023-03-22T00:04:11;96402.31;;;10.69;75.08
52441;BME280;39611;46.062;8.950;2023-03-22T00:06:38;96398.84;;;10.68;74.77
52441;BME280;39611;46.062;8.950;2023-03-22T00:09:05;96401.00;;;10.66;74.92
52441;BME280;39611;46.062;8.950;2023-03-22T00:11:31;96400.03;;;10.52;75.57
52441;BME280;39611;46.062;8.950;2023-03-22T00:13:57;96397.09;;;10.59;74.66
52441;BME280;39611;46.062;8.950;2023-03-22T00:16:25;96398.47;;;10.51;75.18
52441;BME280;39611;46.062;8.950;2023-03-22T00:18:51;96394.19;;;10.55;75.28
52441;BME280;39611;46.062;8.950;2023-03-22T00:21:19;96392.03;;;10.62;75.02
52441;BME280;39611;46.062;8.950;2023-03-22T00:23:46;96396.81;;;10.55;75.43
52441;BME280;39611;46.062;8.950;2023-03-22T00:26:13;96405.63;;;10.45;75.85
52441;BME280;39611;46.062;8.950;2023-03-22T00:28:40;96391.66;;;10.35;77.20
52441;BME280;39611;46.062;8.950;2023-03-22T00:31:08;96397.25;;;10.28;76.79
52441;BME280;39611;46.062;8.950;2023-03-22T00:33:35;96385.88;;;10.33;75.95
52441;BME280;39611;46.062;8.950;2023-03-22T00:36:07;96390.56;;;10.41;75.18
52441;BME280;39611;46.062;8.950;2023-03-22T00:38:34;96392.72;;;10.34;76.78
52441;BME280;39611;46.062;8.950;2023-03-22T00:41:11;96393.28;;;10.31;77.23
52441;BME280;39611;46.062;8.950;2023-03-22T00:43:38;96396.66;;;10.41;76.37
52441;BME280;39611;46.062;8.950;2023-03-22T00:46:05;96387.97;;;10.36;76.50
52441;BME280;39611;46.062;8.950;2023-03-22T00:48:32;96392.47;;;10.35;76.25
52441;BME280;39611;46.062;8.950;2023-03-22T00:50:58;96394.81;;;10.37;76.29
52441;BME280;39611;46.062;8.950;2023-03-22T00:53:25;96393.31;;;10.15;78.13
52441;BME280;39611;46.062;8.950;2023-03-22T00:55:51;96385.09;;;10.17;76.86
52441;BME280;39611;46.062;8.950;2023-03-22T00:58:18;96377.97;;;10.22;76.94
52441;BME280;39611;46.062;8.950;2023-03-22T01:00:44;96380.09;;;10.20;77.84
52441;BME280;39611;46.062;8.950;2023-03-22T01:03:11;96378.50;;;10.14;78.27
52441;BME280;39611;46.062;8.950;2023-03-22T01:05:39;96378.47;;;10.19;77.60
52441;BME280;39611;46.062;8.950;2023-03-22T01:08:06;96380.59;;;10.27;77.12
52441;BME280;39611;46.062;8.950;2023-03-22T01:10:37;96376.69;;;10.15;78.14
52441;BME280;39611;46.062;8.950;2023-03-22T01:13:05;96374.34;;;10.03;78.22
52441;BME280;39611;46.062;8.950;2023-03-22T01:15:32;96372.22;;;10.05;77.82
52441;BME280;39611;46.062;8.950;2023-03-22T01:17:59;96382.78;;;10.05;77.92
52441;BME280;39611;46.062;8.950;2023-03-22T01:20:26;96373.84;;;9.96;78.42
52441;BME280;39611;46.062;8.950;2023-03-22T01:22:52;96371.75;;;9.93;77.89
52441;BME280;39611;46.062;8.950;2023-03-22T01:25:19;96375.13;;;10.03;77.65
52441;BME280;39611;46.062;8.950;2023-03-22T01:27:45;96370.88;;;10.13;77.34
52441;BME280;39611;46.062;8.950;2023-03-22T01:30:12;96373.56;;;10.02;77.33
52441;BME280;39611;46.062;8.950;2023-03-22T01:32:39;96377.75;;;10.09;76.51
52441;BME280;39611;46.062;8.950;2023-03-22T01:35:06;96373.50;;;10.13;76.84
52441;BME280;39611;46.062;8.950;2023-03-22T01:37:33;96365.59;;;10.07;77.05
52441;BME280;39611;46.062;8.950;2023-03-22T01:39:59;96368.78;;;10.04;77.16
52441;BME280;39611;46.062;8.950;2023-03-22T01:42:26;96364.31;;;10.00;76.81
52441;BME280;39611;46.062;8.950;2023-03-22T01:47:40;96364.03;;;10.06;77.76
52441;BME280;39611;46.062;8.950;2023-03-22T01:50:08;96357.69;;;10.02;77.99
52441;BME280;39611;46.062;8.950;2023-03-22T01:52:35;96360.31;;;10.07;77.58
52441;BME280;39611;46.062;8.950;2023-03-22T01:55:04;96354.72;;;10.14;76.30
52441;BME280;39611;46.062;8.950;2023-03-22T01:57:32;96354.28;;;9.97;78.29
52441;BME280;39611;46.062;8.950;2023-03-22T02:00:08;96350.63;;;9.88;78.38
52441;BME280;39611;46.062;8.950;2023-03-22T02:02:37;96357.81;;;9.77;79.29
52441;BME280;39611;46.062;8.950;2023-03-22T02:05:04;96359.66;;;9.76;79.38
52441;BME280;39611;46.062;8.950;2023-03-22T02:07:31;96358.34;;;9.74;78.89
52441;BME280;39611;46.062;8.950;2023-03-22T02:09:58;96350.94;;;9.76;78.26
52441;BME280;39611;46.062;8.950;2023-03-22T02:30:02;96348.56;;;9.79;78.91
52441;BME280;39611;46.062;8.950;2023-03-22T02:35:29;96359.44;;;9.62;79.84
52441;BME280;39611;46.062;8.950;2023-03-22T02:46:45;96365.19;;;9.80;78.91
52441;BME280;39611;46.062;8.950;2023-03-22T02:52:01;96361.69;;;9.95;77.67
52441;BME280;39611;46.062;8.950;2023-03-22T02:54:37;96361.78;;;9.74;77.46
52441;BME280;39611;46.062;8.950;2023-03-22T02:57:19;96371.78;;;9.82;77.34
52441;BME280;39611;46.062;8.950;2023-03-22T02:59:51;96372.31;;;9.84;78.02
52441;BME280;39611;46.062;8.950;2023-03-22T03:02:19;96374.75;;;9.66;79.75
52441;BME280;39611;46.062;8.950;2023-03-22T03:04:48;96376.66;;;9.50;80.36
52441;BME280;39611;46.062;8.950;2023-03-22T03:07:20;96383.50;;;9.51;79.61
52441;BME280;39611;46.062;8.950;2023-03-22T03:09:48;96379.78;;;9.52;80.11
52441;BME280;39611;46.062;8.950;2023-03-22T03:12:26;96378.25;;;9.35;80.54
52441;BME280;39611;46.062;8.950;2023-03-22T03:14:53;96376.16;;;9.32;80.83
52441;BME280;39611;46.062;8.950;2023-03-22T03:27:49;96385.63;;;9.49;79.47
52441;BME280;39611;46.062;8.950;2023-03-22T03:30:24;96378.75;;;9.48;79.86
52441;BME280;39611;46.062;8.950;2023-03-22T03:32:59;96374.00;;;9.50;79.77
52441;BME280;39611;46.062;8.950;2023-03-22T03:35:36;96378.78;;;9.37;80.63
52441;BME280;39611;46.062;8.950;2023-03-22T03:38:11;96379.56;;;9.38;80.17
52441;BME280;39611;46.062;8.950;2023-03-22T03:40:43;96382.97;;;9.44;80.04
52441;BME280;39611;46.062;8.950;2023-03-22T03:43:11;96379.31;;;9.34;80.80
52441;BME280;39611;46.062;8.950;2023-03-22T03:45:38;96389.88;;;9.34;80.59
52441;BME280;39611;46.062;8.950;2023-03-22T03:48:09;96386.19;;;9.20;81.04
52441;BME280;39611;46.062;8.950;2023-03-22T03:50:39;96378.78;;;9.37;79.67
52441;BME280;39611;46.062;8.950;2023-03-22T03:53:07;96382.47;;;9.36;79.38
52441;BME280;39611;46.062;8.950;2023-03-22T03:55:33;96375.88;;;9.34;80.11
52441;BME280;39611;46.062;8.950;2023-03-22T03:58:00;96369.28;;;9.31;80.41
52441;BME280;39611;46.062;8.950;2023-03-22T04:00:27;96372.44;;;9.23;80.96
52441;BME280;39611;46.062;8.950;2023-03-22T04:02:53;96374.59;;;9.21;80.81
52441;BME280;39611;46.062;8.950;2023-03-22T04:05:20;96380.91;;;9.15;81.36
52441;BME280;39611;46.062;8.950;2023-03-22T04:07:46;96380.13;;;9.14;81.44
52441;BME280;39611;46.062;8.950;2023-03-22T04:10:12;96381.69;;;9.15;81.13
52441;BME280;39611;46.062;8.950;2023-03-22T04:12:39;96389.13;;;9.13;81.12
52441;BME280;39611;46.062;8.950;2023-03-22T04:15:06;96383.28;;;9.16;80.59
52441;BME280;39611;46.062;8.950;2023-03-22T04:17:32;96378.00;;;9.27;80.72
52441;BME280;39611;46.062;8.950;2023-03-22T04:19:59;96376.69;;;9.29;80.46
52441;BME280;39611;46.062;8.950;2023-03-22T04:22:31;96383.81;;;9.24;81.03
52441;BME280;39611;46.062;8.950;2023-03-22T04:25:00;96382.50;;;9.16;81.56
52441;BME280;39611;46.062;8.950;2023-03-22T04:27:26;96380.91;;;9.10;81.32
52441;BME280;39611;46.062;8.950;2023-03-22T04:29:53;96387.50;;;9.02;81.79
52441;BME280;39611;46.062;8.950;2023-03-22T04:32:20;96392.00;;;9.02;82.35
52441;BME280;39611;46.062;8.950;2023-03-22T04:34:51;96388.59;;;8.96;82.40
52441;BME280;39611;46.062;8.950;2023-03-22T04:37:19;96385.66;;;9.08;81.71
52441;BME280;39611;46.062;8.950;2023-03-22T04:39:47;96393.84;;;9.06;82.35
52441;BME280;39611;46.062;8.950;2023-03-22T04:42:14;96392.53;;;9.09;82.08
52441;BME280;39611;46.062;8.950;2023-03-22T04:44:40;96395.44;;;9.12;81.29
52441;BME280;39611;46.062;8.950;2023-03-22T04:47:07;96394.66;;;9.07;81.75
52441;BME280;39611;46.062;8.950;2023-03-22T04:49:33;96392.53;;;9.09;81.12
52441;BME280;39611;46.062;8.950;2023-03-22T04:52:00;96395.44;;;9.07;82.08
52441;BME280;39611;46.062;8.950;2023-03-22T04:54:26;96399.13;;;8.86;81.98
52441;BME280;39611;46.062;8.950;2023-03-22T04:56:53;96397.28;;;9.02;80.95
52441;BME280;39611;46.062;8.950;2023-03-22T04:59:20;96398.34;;;8.90;81.96
52441;BME280;39611;46.062;8.950;2023-03-22T05:01:47;96403.09;;;8.88;82.00
52441;BME280;39611;46.062;8.950;2023-03-22T05:04:14;96399.38;;;8.84;82.09
52441;BME280;39611;46.062;8.950;2023-03-22T05:06:41;96407.28;;;8.84;82.07
52441;BME280;39611;46.062;8.950;2023-03-22T05:09:08;96406.25;;;8.80;82.73
52441;BME280;39611;46.062;8.950;2023-03-22T05:11:34;96410.19;;;8.67;83.58
52441;BME280;39611;46.062;8.950;2023-03-22T05:14:02;96407.28;;;8.74;83.21
52441;BME280;39611;46.062;8.950;2023-03-22T05:16:28;96416.25;;;8.73;83.29
52441;BME280;39611;46.062;8.950;2023-03-22T05:18:55;96417.31;;;8.67;83.68
52441;BME280;39611;46.062;8.950;2023-03-22T05:21:24;96418.91;;;8.78;82.75
52441;BME280;39611;46.062;8.950;2023-03-22T05:23:55;96418.38;;;8.91;82.45
52441;BME280;39611;46.062;8.950;2023-03-22T05:26:23;96421.03;;;8.96;81.80
52441;BME280;39611;46.062;8.950;2023-03-22T05:28:52;96420.47;;;8.84;81.56
52441;BME280;39611;46.062;8.950;2023-03-22T05:31:19;96424.19;;;8.78;81.70
52441;BME280;39611;46.062;8.950;2023-03-22T05:33:50;96426.03;;;8.88;81.47
52441;BME280;39611;46.062;8.950;2023-03-22T05:36:18;96428.41;;;9.00;81.67
52441;BME280;39611;46.062;8.950;2023-03-22T05:38:45;96435.81;;;8.82;83.17
52441;BME280;39611;46.062;8.950;2023-03-22T05:41:12;96428.13;;;8.81;82.69
52441;BME280;39611;46.062;8.950;2023-03-22T05:43:39;96432.63;;;8.80;83.31
52441;BME280;39611;46.062;8.950;2023-03-22T05:46:07;96426.31;;;8.91;82.76
52441;BME280;39611;46.062;8.950;2023-03-22T05:48:34;96429.72;;;9.02;81.82
52441;BME280;39611;46.062;8.950;2023-03-22T05:51:05;96426.06;;;8.98;82.13
52441;BME280;39611;46.062;8.950;2023-03-22T05:53:31;96424.19;;;8.93;81.91
52441;BME280;39611;46.062;8.950;2023-03-22T05:55:58;96427.38;;;8.90;82.90
52441;BME280;39611;46.062;8.950;2023-03-22T05:58:30;96423.09;;;8.64;83.82
52441;BME280;39611;46.062;8.950;2023-03-22T06:00:57;96427.06;;;8.71;83.57
52441;BME280;39611;46.062;8.950;2023-03-22T06:03:26;96430.53;;;8.87;82.75
52441;BME280;39611;46.062;8.950;2023-03-22T06:05:53;96428.41;;;8.84;82.40
52441;BME280;39611;46.062;8.950;2023-03-22T06:08:21;96431.56;;;8.91;81.95
52441;BME280;39611;46.062;8.950;2023-03-22T06:10:52;96435.00;;;9.07;82.03
52441;BME280;39611;46.062;8.950;2023-03-22T06:13:19;96429.72;;;9.07;83.32
52441;BME280;39611;46.062;8.950;2023-03-22T06:15:46;96431.31;;;8.98;84.32
52441;BME280;39611;46.062;8.950;2023-03-22T06:18:12;96435.78;;;9.03;84.37
52441;BME280;39611;46.062;8.950;2023-03-22T06:20:39;96443.19;;;9.01;84.15
52441;BME280;39611;46.062;8.950;2023-03-22T06:23:06;96433.69;;;9.05;84.31
52441;BME280;39611;46.062;8.950;2023-03-22T06:25:33;96433.69;;;9.20;83.34
52441;BME280;39611;46.062;8.950;2023-03-22T06:27:59;96432.66;;;9.31;81.81
52441;BME280;39611;46.062;8.950;2023-03-22T06:30:26;96437.41;;;9.14;82.95
52441;BME280;39611;46.062;8.950;2023-03-22T06:32:53;96432.38;;;9.17;82.93
52441;BME280;39611;46.062;8.950;2023-03-22T06:35:20;96434.22;;;9.37;81.66
52441;BME280;39611;46.062;8.950;2023-03-22T06:37:46;96437.38;;;9.50;81.76
52441;BME280;39611;46.062;8.950;2023-03-22T06:40:13;96438.16;;;9.55;82.19
52441;BME280;39611;46.062;8.950;2023-03-22T06:42:40;96439.22;;;9.44;84.21
52441;BME280;39611;46.062;8.950;2023-03-22T06:45:07;96441.34;;;9.37;84.57
52441;BME280;39611;46.062;8.950;2023-03-22T06:47:34;96441.34;;;9.47;83.88
52441;BME280;39611;46.062;8.950;2023-03-22T06:50:00;96449.78;;;9.44;83.76
52441;BME280;39611;46.062;8.950;2023-03-22T06:52:27;96448.97;;;9.59;81.76
52441;BME280;39611;46.062;8.950;2023-03-22T06:54:53;96446.84;;;9.71;82.42
52441;BME280;39611;46.062;8.950;2023-03-22T06:57:20;96451.03;;;9.82;81.78
52441;BME280;39611;46.062;8.950;2023-03-22T06:59:46;96452.31;;;9.95;81.75
52441;BME280;39611;46.062;8.950;2023-03-22T07:02:13;96449.09;;;10.09;80.59
52441;BME280;39611;46.062;8.950;2023-03-22T07:04:39;96445.44;;;10.69;76.97
52441;BME280;39611;46.062;8.950;2023-03-22T07:07:06;96445.00;;;11.26;74.78
52441;BME280;39611;46.062;8.950;2023-03-22T07:09:32;96455.41;;;11.80;71.79
52441;BME280;39611;46.062;8.950;2023-03-22T07:11:59;96451.31;;;12.17;70.37
52441;BME280;39611;46.062;8.950;2023-03-22T07:14:25;96459.44;;;12.45;69.56
52441;BME280;39611;46.062;8.950;2023-03-22T07:16:52;96467.66;;;12.67;67.85
52441;BME280;39611;46.062;8.950;2023-03-22T07:19:18;96453.41;;;12.82;67.90
52441;BME280;39611;46.062;8.950;2023-03-22T07:21:45;96458.41;;;13.03;65.78
52441;BME280;39611;46.062;8.950;2023-03-22T07:24:11;96456.59;;;13.17;65.78
52441;BME280;39611;46.062;8.950;2023-03-22T07:26:38;96460.75;;;13.23;65.16
52441;BME280;39611;46.062;8.950;2023-03-22T07:29:06;96458.50;;;12.98;65.54
52441;BME280;39611;46.062;8.950;2023-03-22T07:31:32;96465.38;;;12.99;65.73
52441;BME280;39611;46.062;8.950;2023-03-22T07:34:05;96464.31;;;13.00;65.99
52441;BME280;39611;46.062;8.950;2023-03-22T07:36:32;96462.16;;;12.83;67.16
52441;BME280;39611;46.062;8.950;2023-03-22T07:38:58;96465.25;;;12.71;67.66
52441;BME280;39611;46.062;8.950;2023-03-22T07:41:25;96468.94;;;12.51;68.14
52441;BME280;39611;46.062;8.950;2023-03-22T07:43:52;96476.06;;;12.56;66.78
52441;BME280;39611;46.062;8.950;2023-03-22T07:46:33;96463.88;;;12.31;66.30
52441;BME280;39611;46.062;8.950;2023-03-22T07:48:59;96475.34;;;12.26;67.38
52441;BME280;39611;46.062;8.950;2023-03-22T07:51:26;96469.56;;;12.19;67.00
52441;BME280;39611;46.062;8.950;2023-03-22T07:53:52;96471.75;;;12.17;68.35
52441;BME280;39611;46.062;8.950;2023-03-22T07:56:18;96475.06;;;12.28;68.35
52441;BME280;39611;46.062;8.950;2023-03-22T07:58:45;96472.81;;;12.16;69.18
52441;BME280;39611;46.062;8.950;2023-03-22T08:01:12;96463.09;;;12.06;68.83
52441;BME280;39611;46.062;8.950;2023-03-22T08:03:38;96463.38;;;12.05;69.01
52441;BME280;39611;46.062;8.950;2023-03-22T08:06:05;96466.97;;;12.14;68.19
52441;BME280;39611;46.062;8.950;2023-03-22T08:08:33;96468.28;;;12.16;70.34
52441;BME280;39611;46.062;8.950;2023-03-22T08:11:00;96460.09;;;12.13;69.21
52441;BME280;39611;46.062;8.950;2023-03-22T08:13:27;96465.88;;;12.20;70.36
52441;BME280;39611;46.062;8.950;2023-03-22T08:15:53;96466.69;;;12.39;68.88
52441;BME280;39611;46.062;8.950;2023-03-22T08:18:20;96475.44;;;12.40;66.46
52441;BME280;39611;46.062;8.950;2023-03-22T08:20:52;96454.66;;;12.47;65.88
52441;BME280;39611;46.062;8.950;2023-03-22T08:23:18;96462.78;;;12.56;67.08
52441;BME280;39611;46.062;8.950;2023-03-22T08:25:57;96457.97;;;12.58;67.36
52441;BME280;39611;46.062;8.950;2023-03-22T08:28:23;96462.72;;;12.61;66.99
52441;BME280;39611;46.062;8.950;2023-03-22T08:30:50;96461.63;;;12.62;67.29
52441;BME280;39611;46.062;8.950;2023-03-22T08:33:16;96454.63;;;12.71;67.26
52441;BME280;39611;46.062;8.950;2023-03-22T08:35:46;96464.78;;;12.64;67.51
52441;BME280;39611;46.062;8.950;2023-03-22T08:38:12;96462.50;;;12.76;66.13
52441;BME280;39611;46.062;8.950;2023-03-22T08:40:39;96458.78;;;12.77;65.78
52441;BME280;39611;46.062;8.950;2023-03-22T08:43:05;96460.66;;;12.77;65.41
52441;BME280;39611;46.062;8.950;2023-03-22T08:45:32;96464.66;;;12.93;66.75
52441;BME280;39611;46.062;8.950;2023-03-22T08:47:59;96464.00;;;13.01;66.63
52441;BME280;39611;46.062;8.950;2023-03-22T08:50:26;96466.00;;;13.09;67.83
52441;BME280;39611;46.062;8.950;2023-03-22T08:52:52;96461.91;;;13.17;66.66
52441;BME280;39611;46.062;8.950;2023-03-22T08:55:19;96469.00;;;13.22;64.82
52441;BME280;39611;46.062;8.950;2023-03-22T08:57:45;96460.41;;;13.30;64.84
52441;BME280;39611;46.062;8.950;2023-03-22T09:00:17;96463.75;;;13.36;63.15
52441;BME280;39611;46.062;8.950;2023-03-22T09:02:44;96462.91;;;13.40;64.45
52441;BME280;39611;46.062;8.950;2023-03-22T09:05:10;96458.88;;;13.43;64.36
52441;BME280;39611;46.062;8.950;2023-03-22T09:07:39;96459.88;;;13.47;64.27
52441;BME280;39611;46.062;8.950;2023-03-22T09:10:06;96458.44;;;13.54;62.84
52441;BME280;39611;46.062;8.950;2023-03-22T09:12:33;96462.16;;;13.53;64.35
52441;BME280;39611;46.062;8.950;2023-03-22T09:14:59;96455.75;;;13.54;63.85
52441;BME280;39611;46.062;8.950;2023-03-22T09:17:26;96456.28;;;13.70;64.96
52441;BME280;39611;46.062;8.950;2023-03-22T09:19:52;96463.66;;;13.73;65.17
52441;BME280;39611;46.062;8.950;2023-03-22T09:22:34;96458.53;;;13.77;63.55
52441;BME280;39611;46.062;8.950;2023-03-22T09:25:02;96457.59;;;13.87;63.18
52441;BME280;39611;46.062;8.950;2023-03-22T09:27:28;96451.97;;;13.88;63.11
52441;BME280;39611;46.062;8.950;2023-03-22T09:29:55;96459.38;;;13.91;63.21
52441;BME280;39611;46.062;8.950;2023-03-22T09:32:22;96459.19;;;14.02;63.98
52441;BME280;39611;46.062;8.950;2023-03-22T09:34:49;96458.19;;;14.11;62.44
52441;BME280;39611;46.062;8.950;2023-03-22T09:37:15;96457.19;;;14.21;64.38
52441;BME280;39611;46.062;8.950;2023-03-22T09:39:42;96450.50;;;14.24;64.58
52441;BME280;39611;46.062;8.950;2023-03-22T09:42:44;96453.66;;;14.26;64.16
52441;BME280;39611;46.062;8.950;2023-03-22T09:45:18;96451.50;;;14.28;65.61
52441;BME280;39611;46.062;8.950;2023-03-22T09:47:48;96455.13;;;14.32;63.50
52441;BME280;39611;46.062;8.950;2023-03-22T09:50:22;96441.41;;;14.38;62.63
52441;BME280;39611;46.062;8.950;2023-03-22T09:52:49;96439.75;;;14.42;63.75
52441;BME280;39611;46.062;8.950;2023-03-22T09:55:19;96431.34;;;14.49;63.58
52441;BME280;39611;46.062;8.950;2023-03-22T10:00:50;96425.13;;;14.68;59.82
52441;BME280;39611;46.062;8.950;2023-03-22T10:06:18;96419.31;;;14.66;62.48
52441;BME280;39611;46.062;8.950;2023-03-22T10:09:09;96416.97;;;14.64;63.06
52441;BME280;39611;46.062;8.950;2023-03-22T10:12:00;96414.97;;;14.70;60.54
52441;BME280;39611;46.062;8.950;2023-03-22T10:14:37;96412.47;;;14.73;58.77
52441;BME280;39611;46.062;8.950;2023-03-22T10:17:13;96406.75;;;14.80;61.16
52441;BME280;39611;46.062;8.950;2023-03-22T10:19:49;96410.41;;;14.84;60.74
52441;BME280;39611;46.062;8.950;2023-03-22T10:22:21;96400.72;;;14.88;59.87
52441;BME280;39611;46.062;8.950;2023-03-22T10:24:51;96402.03;;;14.99;56.37
52441;BME280;39611;46.062;8.950;2023-03-22T10:27:21;96403.19;;;15.07;55.80
52441;BME280;39611;46.062;8.950;2023-03-22T10:29:52;96404.91;;;15.03;57.33
52441;BME280;39611;46.062;8.950;2023-03-22T10:32:22;96405.06;;;15.06;55.75
52441;BME280;39611;46.062;8.950;2023-03-22T10:34:51;96409.78;;;15.10;56.54
52441;BME280;39611;46.062;8.950;2023-03-22T10:37:23;96409.00;;;15.09;55.05
52441;BME280;39611;46.062;8.950;2023-03-22T10:39:54;96403.13;;;15.21;53.64
52441;BME280;39611;46.062;8.950;2023-03-22T10:42:27;96403.69;;;15.09;55.75
52441;BME280;39611;46.062;8.950;2023-03-22T10:44:56;96411.06;;;15.12;54.44
52441;BME280;39611;46.062;8.950;2023-03-22T10:47:35;96403.38;;;15.11;57.99
52441;BME280;39611;46.062;8.950;2023-03-22T10:50:06;96397.06;;;15.29;55.62
52441;BME280;39611;46.062;8.950;2023-03-22T10:52:54;96388.72;;;15.22;54.80
52441;BME280;39611;46.062;8.950;2023-03-22T10:55:23;96389.69;;;15.26;55.00
52441;BME280;39611;46.062;8.950;2023-03-22T10:57:58;96390.50;;;15.35;55.85
52441;BME280;39611;46.062;8.950;2023-03-22T11:00:25;96379.22;;;15.38;55.09
52441;BME280;39611;46.062;8.950;2023-03-22T11:02:58;96377.19;;;15.35;56.64
52441;BME280;39611;46.062;8.950;2023-03-22T11:05:27;96379.31;;;15.56;55.80
52441;BME280;39611;46.062;8.950;2023-03-22T11:07:55;96385.63;;;15.60;55.98
52441;BME280;39611;46.062;8.950;2023-03-22T11:13:10;96384.09;;;15.67;52.88
52441;BME280;39611;46.062;8.950;2023-03-22T11:15:40;96380.94;;;15.65;53.96
52441;BME280;39611;46.062;8.950;2023-03-22T11:18:15;96375.81;;;15.69;53.28
52441;BME280;39611;46.062;8.950;2023-03-22T11:20:53;96376.63;;;15.69;53.89
52441;BME280;39611;46.062;8.950;2023-03-22T11:23:21;96372.72;;;15.84;53.81
52441;BME280;39611;46.062;8.950;2023-03-22T11:25:49;96366.59;;;15.84;53.70
52441;BME280;39611;46.062;8.950;2023-03-22T11:28:41;96365.22;;;15.86;54.27
52441;BME280;39611;46.062;8.950;2023-03-22T11:31:10;96366.44;;;15.80;55.26
52441;BME280;39611;46.062;8.950;2023-03-22T11:33:54;96372.31;;;16.00;53.21
52441;BME280;39611;46.062;8.950;2023-03-22T11:36:21;96369.63;;;15.91;53.80
52441;BME280;39611;46.062;8.950;2023-03-22T11:38:58;96371.97;;;15.92;52.41
52441;BME280;39611;46.062;8.950;2023-03-22T11:41:27;96367.41;;;15.84;53.99
52441;BME280;39611;46.062;8.950;2023-03-22T11:43:57;96372.59;;;15.89;53.45
52441;BME280;39611;46.062;8.950;2023-03-22T11:46:28;96364.78;;;16.02;52.55
52441;BME280;39611;46.062;8.950;2023-03-22T11:49:01;96361.81;;;16.03;54.67
52441;BME280;39611;46.062;8.950;2023-03-22T11:51:31;96365.56;;;16.11;51.78
52441;BME280;39611;46.062;8.950;2023-03-22T11:54:13;96363.38;;;16.13;52.36
52441;BME280;39611;46.062;8.950;2023-03-22T11:56:44;96353.50;;;16.13;51.45
52441;BME280;39611;46.062;8.950;2023-03-22T11:59:24;96348.19;;;16.22;51.31
52441;BME280;39611;46.062;8.950;2023-03-22T12:04:26;96350.22;;;16.34;52.39
52441;BME280;39611;46.062;8.950;2023-03-22T12:06:58;96335.78;;;16.26;53.66
52441;BME280;39611;46.062;8.950;2023-03-22T12:09:42;96337.06;;;16.37;51.26
52441;BME280;39611;46.062;8.950;2023-03-22T12:12:14;96341.13;;;16.44;50.58
52441;BME280;39611;46.062;8.950;2023-03-22T12:17:14;96331.25;;;16.44;53.11
52441;BME280;39611;46.062;8.950;2023-03-22T12:22:49;96324.66;;;16.33;52.65
52441;BME280;39611;46.062;8.950;2023-03-22T12:25:28;96319.63;;;16.31;53.11
52441;BME280;39611;46.062;8.950;2023-03-22T12:28:01;96324.78;;;16.36;52.48
52441;BME280;39611;46.062;8.950;2023-03-22T12:30:35;96307.84;;;16.41;50.19
52441;BME280;39611;46.062;8.950;2023-03-22T12:33:08;96313.50;;;16.48;49.82
52441;BME280;39611;46.062;8.950;2023-03-22T12:35:42;96308.94;;;16.66;49.81
52441;BME280;39611;46.062;8.950;2023-03-22T12:40:51;96300.31;;;16.87;50.73
52441;BME280;39611;46.062;8.950;2023-03-22T12:46:04;96287.75;;;16.78;50.84
52441;BME280;39611;46.062;8.950;2023-03-22T12:51:17;96287.59;;;16.84;51.10
52441;BME280;39611;46.062;8.950;2023-03-22T12:53:54;96282.84;;;16.98;48.93
52441;BME280;39611;46.062;8.950;2023-03-22T12:56:25;96281.28;;;16.97;49.58
52441;BME280;39611;46.062;8.950;2023-03-22T12:58:58;96272.19;;;16.89;48.94
52441;BME280;39611;46.062;8.950;2023-03-22T13:01:42;96274.22;;;16.92;51.02
52441;BME280;39611;46.062;8.950;2023-03-22T13:22:57;96251.25;;;16.91;50.23
52441;BME280;39611;46.062;8.950;2023-03-22T13:32:53;96242.75;;;16.98;48.27
52441;BME280;39611;46.062;8.950;2023-03-22T13:35:44;96241.97;;;16.97;48.77
52441;BME280;39611;46.062;8.950;2023-03-22T13:38:24;96238.34;;;17.02;48.59
52441;BME280;39611;46.062;8.950;2023-03-22T13:53:48;96215.44;;;16.92;43.71
52441;BME280;39611;46.062;8.950;2023-03-22T14:09:55;96196.16;;;17.16;46.51
52441;BME280;39611;46.062;8.950;2023-03-22T14:14:59;96197.75;;;17.17;45.98
52441;BME280;39611;46.062;8.950;2023-03-22T14:17:38;96187.66;;;17.14;46.04
52441;BME280;39611;46.062;8.950;2023-03-22T14:20:11;96189.59;;;17.05;45.45
52441;BME280;39611;46.062;8.950;2023-03-22T14:22:46;96192.75;;;17.07;45.44
52441;BME280;39611;46.062;8.950;2023-03-22T14:25:17;96185.81;;;17.15;45.51
52441;BME280;39611;46.062;8.950;2023-03-22T14:27:44;96185.97;;;17.10;45.12
52441;BME280;39611;46.062;8.950;2023-03-22T14:32:53;96180.28;;;17.11;46.28
52441;BME280;39611;46.062;8.950;2023-03-22T14:35:42;96180.13;;;17.16;45.13
52441;BME280;39611;46.062;8.950;2023-03-22T14:38:21;96176.25;;;17.35;44.07
52441;BME280;39611;46.062;8.950;2023-03-22T14:40:48;96173.47;;;17.22;44.89
52441;BME280;39611;46.062;8.950;2023-03-22T14:45:46;96179.75;;;17.27;43.63
52441;BME280;39611;46.062;8.950;2023-03-22T14:48:23;96170.34;;;17.20;44.55
52441;BME280;39611;46.062;8.950;2023-03-22T14:50:52;96176.13;;;17.31;44.09
52441;BME280;39611;46.062;8.950;2023-03-22T14:53:20;96176.47;;;17.21;44.27
52441;BME280;39611;46.062;8.950;2023-03-22T14:55:48;96174.94;;;17.20;44.06
52441;BME280;39611;46.062;8.950;2023-03-22T14:58:16;96171.03;;;17.09;44.90
52441;BME280;39611;46.062;8.950;2023-03-22T15:00:44;96176.25;;;17.05;44.56
52441;BME280;39611;46.062;8.950;2023-03-22T15:03:21;96174.66;;;17.04;44.55
52441;BME280;39611;46.062;8.950;2023-03-22T15:05:48;96172.28;;;17.11;45.08
52441;BME280;39611;46.062;8.950;2023-03-22T15:10:47;96167.88;;;17.15;44.31
52441;BME280;39611;46.062;8.950;2023-03-22T15:13:14;96173.47;;;17.22;42.30
52441;BME280;39611;46.062;8.950;2023-03-22T15:15:42;96171.00;;;17.17;43.70
52441;BME280;39611;46.062;8.950;2023-03-22T15:18:12;96162.53;;;17.15;43.23
52441;BME280;39611;46.062;8.950;2023-03-22T15:20:39;96170.72;;;17.10;43.30
52441;BME280;39611;46.062;8.950;2023-03-22T15:23:38;96174.78;;;17.16;43.70
52441;BME280;39611;46.062;8.950;2023-03-22T15:26:07;96174.31;;;17.14;43.70
52441;BME280;39611;46.062;8.950;2023-03-22T15:28:45;96170.56;;;17.07;44.22
52441;BME280;39611;46.062;8.950;2023-03-22T15:31:20;96170.38;;;17.12;41.67